sensor_id;sensor_type;location;lat;lon;timestamp;P1;durP1;ratioP1;P2;durP2;ratioP2
14306;SDS011;7237;49.500;11.400;2023-05-07T00:02:17;6.17;;;2.53;;
14306;SDS011;7237;49.500;11.400;2023-05-07T00:04:44;2.87;;;2.63;;
14306;SDS011;7237;49.500;11.400;2023-05-07T00:07:11;3.00;;;2.80;;
14306;SDS011;7237;49.500;11.400;2023-05-07T00:09:38;3.43;;;2.93;;
14306;SDS011;7237;49.500;11.400;2023-05-07T00:12:06;3.63;;;2.47;;
14306;SDS011;7237;49.500;11.400;2023-05-07T00:14:33;3.60;;;2.80;;
14306;SDS011;7237;49.500;11.400;2023-05-07T00:17:01;3.27;;;2.47;;
14306;SDS011;7237;49.500;11.400;2023-05-07T00:19:28;3.00;;;2.50;;
14306;SDS011;7237;49.500;11.400;2023-05-07T00:21:55;2.67;;;2.47;;
14306;SDS011;7237;49.500;11.400;2023-05-07T00:24:23;2.90;;;2.47;;
14306;SDS011;7237;49.500;11.400;2023-05-07T00:26:50;4.63;;;2.47;;
14306;SDS011;7237;49.500;11.400;2023-05-07T00:29:17;2.43;;;2.23;;
14306;SDS011;7237;49.500;11.400;2023-05-07T00:31:45;2.63;;;2.17;;
14306;SDS011;7237;49.500;11.400;2023-05-07T00:34:13;2.90;;;2.70;;
14306;SDS011;7237;49.500;11.400;2023-05-07T00:36:40;3.83;;;3.07;;
14306;SDS011;7237;49.500;11.400;2023-05-07T00:39:07;3.07;;;2.87;;
14306;SDS011;7237;49.500;11.400;2023-05-07T00:41:34;3.03;;;2.63;;
14306;SDS011;7237;49.500;11.400;2023-05-07T00:44:01;3.23;;;2.93;;
14306;SDS011;7237;49.500;11.400;2023-05-07T00:46:28;2.63;;;2.37;;
14306;SDS011;7237;49.500;11.400;2023-05-07T00:48:57;4.70;;;2.77;;
14306;SDS011;7237;49.500;11.400;2023-05-07T00:51:25;2.67;;;2.47;;
14306;SDS011;7237;49.500;11.400;2023-05-07T00:53:53;4.37;;;2.80;;
14306;SDS011;7237;49.500;11.400;2023-05-07T00:56:20;3.87;;;2.70;;
14306;SDS011;7237;49.500;11.400;2023-05-07T00:58:48;4.37;;;2.70;;
14306;SDS011;7237;49.500;11.400;2023-05-07T01:01:15;3.17;;;2.67;;
14306;SDS011;7237;49.500;11.400;2023-05-07T01:03:42;3.40;;;2.87;;
14306;SDS011;7237;49.500;11.400;2023-05-07T01:06:09;3.03;;;2.73;;
14306;SDS011;7237;49.500;11.400;2023-05-07T01:08:39;4.70;;;2.70;;
14306;SDS011;7237;49.500;11.400;2023-05-07T01:11:06;3.80;;;2.70;;
14306;SDS011;7237;49.500;11.400;2023-05-07T01:13:33;5.63;;;2.77;;
14306;SDS011;7237;49.500;11.400;2023-05-07T01:16:01;2.90;;;2.70;;
14306;SDS011;7237;49.500;11.400;2023-05-07T01:18:28;3.87;;;2.60;;
14306;SDS011;7237;49.500;11.400;2023-05-07T01:20:55;6.10;;;2.67;;
14306;SDS011;7237;49.500;11.400;2023-05-07T01:23:26;3.13;;;2.87;;
14306;SDS011;7237;49.500;11.400;2023-05-07T01:25:54;2.80;;;2.40;;
14306;SDS011;7237;49.500;11.400;2023-05-07T01:28:21;4.63;;;2.60;;
14306;SDS011;7237;49.500;11.400;2023-05-07T01:30:49;3.17;;;2.57;;
14306;SDS011;7237;49.500;11.400;2023-05-07T01:33:18;3.13;;;2.50;;
14306;SDS011;7237;49.500;11.400;2023-05-07T01:35:47;2.83;;;2.57;;
14306;SDS011;7237;49.500;11.400;2023-05-07T01:38:14;3.07;;;2.57;;
14306;SDS011;7237;49.500;11.400;2023-05-07T01:40:42;3.30;;;2.90;;
14306;SDS011;7237;49.500;11.400;2023-05-07T01:43:09;2.87;;;2.50;;
14306;SDS011;7237;49.500;11.400;2023-05-07T01:45:37;3.70;;;2.90;;
14306;SDS011;7237;49.500;11.400;2023-05-07T01:48:04;3.30;;;3.00;;
14306;SDS011;7237;49.500;11.400;2023-05-07T01:50:32;3.77;;;3.00;;
14306;SDS011;7237;49.500;11.400;2023-05-07T01:53:00;4.63;;;2.97;;
14306;SDS011;7237;49.500;11.400;2023-05-07T01:55:28;3.00;;;2.80;;
14306;SDS011;7237;49.500;11.400;2023-05-07T01:57:56;3.23;;;2.80;;
14306;SDS011;7237;49.500;11.400;2023-05-07T02:00:23;3.40;;;3.10;;
14306;SDS011;7237;49.500;11.400;2023-05-07T02:02:50;3.67;;;3.07;;
14306;SDS011;7237;49.500;11.400;2023-05-07T02:05:18;3.23;;;2.90;;
14306;SDS011;7237;49.500;11.400;2023-05-07T02:07:45;7.17;;;3.20;;
14306;SDS011;7237;49.500;11.400;2023-05-07T02:10:12;4.00;;;3.50;;
14306;SDS011;7237;49.500;11.400;2023-05-07T02:12:39;2.97;;;2.77;;
14306;SDS011;7237;49.500;11.400;2023-05-07T02:15:08;3.57;;;2.73;;
14306;SDS011;7237;49.500;11.400;2023-05-07T02:17:39;5.10;;;3.03;;
14306;SDS011;7237;49.500;11.400;2023-05-07T02:20:07;3.40;;;3.10;;
14306;SDS011;7237;49.500;11.400;2023-05-07T02:22:38;3.27;;;2.97;;
14306;SDS011;7237;49.500;11.400;2023-05-07T02:25:05;2.90;;;2.70;;
14306;SDS011;7237;49.500;11.400;2023-05-07T02:27:32;5.13;;;3.27;;
14306;SDS011;7237;49.500;11.400;2023-05-07T02:29:59;3.60;;;2.87;;
14306;SDS011;7237;49.500;11.400;2023-05-07T02:32:27;3.80;;;3.07;;
14306;SDS011;7237;49.500;11.400;2023-05-07T02:34:55;3.60;;;3.30;;
14306;SDS011;7237;49.500;11.400;2023-05-07T02:37:22;5.43;;;3.40;;
14306;SDS011;7237;49.500;11.400;2023-05-07T02:39:49;4.20;;;3.80;;
14306;SDS011;7237;49.500;11.400;2023-05-07T02:42:16;3.43;;;3.13;;
14306;SDS011;7237;49.500;11.400;2023-05-07T02:44:43;4.07;;;3.30;;
14306;SDS011;7237;49.500;11.400;2023-05-07T02:47:10;4.20;;;3.80;;
14306;SDS011;7237;49.500;11.400;2023-05-07T02:49:39;3.73;;;3.43;;
14306;SDS011;7237;49.500;11.400;2023-05-07T02:52:06;4.03;;;3.70;;
14306;SDS011;7237;49.500;11.400;2023-05-07T02:54:33;3.50;;;3.20;;
14306;SDS011;7237;49.500;11.400;2023-05-07T02:57:00;5.67;;;3.63;;
14306;SDS011;7237;49.500;11.400;2023-05-07T02:59:28;4.13;;;3.73;;
14306;SDS011;7237;49.500;11.400;2023-05-07T03:01:55;4.27;;;3.73;;
14306;SDS011;7237;49.500;11.400;2023-05-07T03:04:22;6.73;;;4.30;;
14306;SDS011;7237;49.500;11.400;2023-05-07T03:06:50;5.37;;;3.93;;
14306;SDS011;7237;49.500;11.400;2023-05-07T03:09:17;6.07;;;4.10;;
14306;SDS011;7237;49.500;11.400;2023-05-07T03:11:44;6.90;;;4.27;;
14306;SDS011;7237;49.500;11.400;2023-05-07T03:14:11;5.20;;;4.40;;
14306;SDS011;7237;49.500;11.400;2023-05-07T03:16:39;4.47;;;4.07;;
14306;SDS011;7237;49.500;11.400;2023-05-07T03:19:06;5.17;;;4.67;;
14306;SDS011;7237;49.500;11.400;2023-05-07T03:21:33;6.63;;;4.33;;
14306;SDS011;7237;49.500;11.400;2023-05-07T03:24:01;5.57;;;5.03;;
14306;SDS011;7237;49.500;11.400;2023-05-07T03:26:28;5.53;;;4.80;;
14306;SDS011;7237;49.500;11.400;2023-05-07T03:28:55;7.60;;;5.13;;
14306;SDS011;7237;49.500;11.400;2023-05-07T03:31:22;6.50;;;5.50;;
14306;SDS011;7237;49.500;11.400;2023-05-07T03:33:50;7.73;;;5.60;;
14306;SDS011;7237;49.500;11.400;2023-05-07T03:36:17;5.37;;;4.87;;
14306;SDS011;7237;49.500;11.400;2023-05-07T03:38:44;5.73;;;4.70;;
14306;SDS011;7237;49.500;11.400;2023-05-07T03:41:13;7.50;;;5.43;;
14306;SDS011;7237;49.500;11.400;2023-05-07T03:43:40;5.80;;;5.30;;
14306;SDS011;7237;49.500;11.400;2023-05-07T03:46:07;5.50;;;4.80;;
14306;SDS011;7237;49.500;11.400;2023-05-07T03:48:34;5.70;;;5.20;;
14306;SDS011;7237;49.500;11.400;2023-05-07T03:51:01;5.70;;;5.20;;
14306;SDS011;7237;49.500;11.400;2023-05-07T03:53:28;5.70;;;5.20;;
14306;SDS011;7237;49.500;11.400;2023-05-07T03:55:55;5.97;;;5.40;;
14306;SDS011;7237;49.500;11.400;2023-05-07T03:58:24;6.23;;;5.63;;
14306;SDS011;7237;49.500;11.400;2023-05-07T04:00:51;5.97;;;5.23;;
14306;SDS011;7237;49.500;11.400;2023-05-07T04:03:18;6.63;;;5.97;;
14306;SDS011;7237;49.500;11.400;2023-05-07T04:05:45;6.37;;;5.77;;
14306;SDS011;7237;49.500;11.400;2023-05-07T04:08:12;6.87;;;6.17;;
14306;SDS011;7237;49.500;11.400;2023-05-07T04:10:39;6.47;;;5.87;;
14306;SDS011;7237;49.500;11.400;2023-05-07T04:13:06;6.03;;;5.50;;
14306;SDS011;7237;49.500;11.400;2023-05-07T04:15:34;6.23;;;5.67;;
14306;SDS011;7237;49.500;11.400;2023-05-07T04:18:02;6.80;;;6.10;;
14306;SDS011;7237;49.500;11.400;2023-05-07T04:20:29;6.87;;;6.20;;
14306;SDS011;7237;49.500;11.400;2023-05-07T04:22:56;6.10;;;5.53;;
14306;SDS011;7237;49.500;11.400;2023-05-07T04:25:23;8.60;;;6.50;;
14306;SDS011;7237;49.500;11.400;2023-05-07T04:27:51;6.13;;;5.57;;
14306;SDS011;7237;49.500;11.400;2023-05-07T04:30:18;7.10;;;6.40;;
14306;SDS011;7237;49.500;11.400;2023-05-07T04:32:48;7.47;;;5.40;;
14306;SDS011;7237;49.500;11.400;2023-05-07T04:35:15;6.83;;;6.03;;
14306;SDS011;7237;49.500;11.400;2023-05-07T04:37:42;6.63;;;6.03;;
14306;SDS011;7237;49.500;11.400;2023-05-07T04:40:09;7.27;;;6.57;;
14306;SDS011;7237;49.500;11.400;2023-05-07T04:42:36;6.40;;;5.80;;
14306;SDS011;7237;49.500;11.400;2023-05-07T04:45:04;7.67;;;6.50;;
14306;SDS011;7237;49.500;11.400;2023-05-07T04:47:31;6.73;;;6.03;;
14306;SDS011;7237;49.500;11.400;2023-05-07T04:49:59;6.30;;;5.80;;
14306;SDS011;7237;49.500;11.400;2023-05-07T04:52:26;5.97;;;5.40;;
14306;SDS011;7237;49.500;11.400;2023-05-07T04:54:53;5.90;;;5.40;;
14306;SDS011;7237;49.500;11.400;2023-05-07T04:57:20;9.10;;;5.50;;
14306;SDS011;7237;49.500;11.400;2023-05-07T04:59:47;6.00;;;5.50;;
14306;SDS011;7237;49.500;11.400;2023-05-07T05:02:15;5.00;;;4.60;;
14306;SDS011;7237;49.500;11.400;2023-05-07T05:04:42;5.47;;;4.97;;
14306;SDS011;7237;49.500;11.400;2023-05-07T05:07:10;8.43;;;5.00;;
14306;SDS011;7237;49.500;11.400;2023-05-07T05:09:38;5.77;;;5.17;;
14306;SDS011;7237;49.500;11.400;2023-05-07T05:12:05;4.80;;;4.40;;
14306;SDS011;7237;49.500;11.400;2023-05-07T05:14:33;5.10;;;4.60;;
14306;SDS011;7237;49.500;11.400;2023-05-07T05:17:00;8.33;;;4.33;;
14306;SDS011;7237;49.500;11.400;2023-05-07T05:19:27;4.55;;;4.15;;
14306;SDS011;7237;49.500;11.400;2023-05-07T05:21:54;4.85;;;4.40;;
14306;SDS011;7237;49.500;11.400;2023-05-07T05:24:22;5.03;;;4.53;;
14306;SDS011;7237;49.500;11.400;2023-05-07T05:26:49;4.90;;;4.40;;
14306;SDS011;7237;49.500;11.400;2023-05-07T05:29:16;4.85;;;4.40;;
14306;SDS011;7237;49.500;11.400;2023-05-07T05:31:43;5.35;;;4.85;;
14306;SDS011;7237;49.500;11.400;2023-05-07T05:34:10;4.82;;;4.38;;
14306;SDS011;7237;49.500;11.400;2023-05-07T05:36:37;7.25;;;5.10;;
14306;SDS011;7237;49.500;11.400;2023-05-07T05:39:04;4.90;;;4.50;;
14306;SDS011;7237;49.500;11.400;2023-05-07T05:41:33;4.75;;;4.35;;
14306;SDS011;7237;49.500;11.400;2023-05-07T05:44:00;5.13;;;4.72;;
14306;SDS011;7237;49.500;11.400;2023-05-07T05:46:27;5.53;;;5.03;;
14306;SDS011;7237;49.500;11.400;2023-05-07T05:48:54;6.75;;;4.72;;
14306;SDS011;7237;49.500;11.400;2023-05-07T05:51:21;4.90;;;4.40;;
14306;SDS011;7237;49.500;11.400;2023-05-07T05:53:49;5.68;;;4.38;;
14306;SDS011;7237;49.500;11.400;2023-05-07T05:56:16;5.93;;;5.15;;
14306;SDS011;7237;49.500;11.400;2023-05-07T05:58:44;5.40;;;4.60;;
14306;SDS011;7237;49.500;11.400;2023-05-07T06:01:11;6.07;;;4.60;;
14306;SDS011;7237;49.500;11.400;2023-05-07T06:03:38;4.65;;;4.25;;
14306;SDS011;7237;49.500;11.400;2023-05-07T06:06:05;6.80;;;4.50;;
14306;SDS011;7237;49.500;11.400;2023-05-07T06:08:32;5.10;;;4.60;;
14306;SDS011;7237;49.500;11.400;2023-05-07T06:10:59;4.97;;;4.50;;
14306;SDS011;7237;49.500;11.400;2023-05-07T06:13:27;4.97;;;4.55;;
14306;SDS011;7237;49.500;11.400;2023-05-07T06:15:56;5.30;;;4.80;;
14306;SDS011;7237;49.500;11.400;2023-05-07T06:18:23;5.55;;;5.03;;
14306;SDS011;7237;49.500;11.400;2023-05-07T06:20:51;5.35;;;4.75;;
14306;SDS011;7237;49.500;11.400;2023-05-07T06:23:18;5.80;;;4.93;;
14306;SDS011;7237;49.500;11.400;2023-05-07T06:25:47;6.20;;;4.97;;
14306;SDS011;7237;49.500;11.400;2023-05-07T06:28:14;5.88;;;4.97;;
14306;SDS011;7237;49.500;11.400;2023-05-07T06:30:42;6.22;;;5.63;;
14306;SDS011;7237;49.500;11.400;2023-05-07T06:33:10;6.65;;;5.00;;
14306;SDS011;7237;49.500;11.400;2023-05-07T06:35:37;6.20;;;5.60;;
14306;SDS011;7237;49.500;11.400;2023-05-07T06:38:04;5.68;;;5.18;;
14306;SDS011;7237;49.500;11.400;2023-05-07T06:40:31;5.80;;;5.05;;
14306;SDS011;7237;49.500;11.400;2023-05-07T06:42:58;6.13;;;5.43;;
14306;SDS011;7237;49.500;11.400;2023-05-07T06:45:25;6.28;;;5.38;;
14306;SDS011;7237;49.500;11.400;2023-05-07T06:47:52;6.75;;;6.13;;
14306;SDS011;7237;49.500;11.400;2023-05-07T06:50:21;5.78;;;5.22;;
14306;SDS011;7237;49.500;11.400;2023-05-07T06:52:48;6.18;;;5.57;;
14306;SDS011;7237;49.500;11.400;2023-05-07T06:55:15;9.93;;;5.55;;
14306;SDS011;7237;49.500;11.400;2023-05-07T06:57:42;6.03;;;5.43;;
14306;SDS011;7237;49.500;11.400;2023-05-07T07:00:09;5.72;;;5.20;;
14306;SDS011;7237;49.500;11.400;2023-05-07T07:02:36;6.93;;;5.55;;
14306;SDS011;7237;49.500;11.400;2023-05-07T07:05:03;5.68;;;5.10;;
14306;SDS011;7237;49.500;11.400;2023-05-07T07:07:32;6.15;;;5.43;;
14306;SDS011;7237;49.500;11.400;2023-05-07T07:09:59;6.82;;;5.00;;
14306;SDS011;7237;49.500;11.400;2023-05-07T07:12:27;5.82;;;5.22;;
14306;SDS011;7237;49.500;11.400;2023-05-07T07:14:54;7.20;;;5.70;;
14306;SDS011;7237;49.500;11.400;2023-05-07T07:17:21;6.43;;;5.38;;
14306;SDS011;7237;49.500;11.400;2023-05-07T07:19:48;5.88;;;5.28;;
14306;SDS011;7237;49.500;11.400;2023-05-07T07:22:16;6.18;;;5.38;;
14306;SDS011;7237;49.500;11.400;2023-05-07T07:24:44;6.28;;;5.55;;
14306;SDS011;7237;49.500;11.400;2023-05-07T07:27:11;6.45;;;5.40;;
14306;SDS011;7237;49.500;11.400;2023-05-07T07:29:38;7.57;;;5.07;;
14306;SDS011;7237;49.500;11.400;2023-05-07T07:32:05;5.25;;;4.75;;
14306;SDS011;7237;49.500;11.400;2023-05-07T07:34:32;5.68;;;4.85;;
14306;SDS011;7237;49.500;11.400;2023-05-07T07:36:59;5.10;;;4.70;;
14306;SDS011;7237;49.500;11.400;2023-05-07T07:39:30;6.70;;;5.82;;
14306;SDS011;7237;49.500;11.400;2023-05-07T07:41:58;6.57;;;5.82;;
14306;SDS011;7237;49.500;11.400;2023-05-07T07:44:25;7.32;;;5.35;;
14306;SDS011;7237;49.500;11.400;2023-05-07T07:46:52;5.95;;;5.45;;
14306;SDS011;7237;49.500;11.400;2023-05-07T07:49:19;5.47;;;4.97;;
14306;SDS011;7237;49.500;11.400;2023-05-07T07:51:46;6.47;;;5.88;;
14306;SDS011;7237;49.500;11.400;2023-05-07T07:54:13;5.93;;;5.43;;
14306;SDS011;7237;49.500;11.400;2023-05-07T07:56:41;6.80;;;5.40;;
14306;SDS011;7237;49.500;11.400;2023-05-07T07:59:09;5.82;;;5.30;;
14306;SDS011;7237;49.500;11.400;2023-05-07T08:01:36;7.15;;;5.18;;
14306;SDS011;7237;49.500;11.400;2023-05-07T08:04:03;5.97;;;5.03;;
14306;SDS011;7237;49.500;11.400;2023-05-07T08:06:31;6.32;;;5.25;;
14306;SDS011;7237;49.500;11.400;2023-05-07T08:08:58;7.63;;;5.40;;
14306;SDS011;7237;49.500;11.400;2023-05-07T08:11:25;5.45;;;4.95;;
14306;SDS011;7237;49.500;11.400;2023-05-07T08:13:52;7.00;;;6.25;;
14306;SDS011;7237;49.500;11.400;2023-05-07T08:16:20;5.88;;;5.28;;
14306;SDS011;7237;49.500;11.400;2023-05-07T08:18:48;5.82;;;4.85;;
14306;SDS011;7237;49.500;11.400;2023-05-07T08:21:15;5.85;;;5.25;;
14306;SDS011;7237;49.500;11.400;2023-05-07T08:23:42;6.18;;;5.57;;
14306;SDS011;7237;49.500;11.400;2023-05-07T08:26:09;6.05;;;5.45;;
14306;SDS011;7237;49.500;11.400;2023-05-07T08:28:36;5.80;;;5.20;;
14306;SDS011;7237;49.500;11.400;2023-05-07T08:31:04;6.75;;;5.22;;
14306;SDS011;7237;49.500;11.400;2023-05-07T08:33:32;5.70;;;5.20;;
14306;SDS011;7237;49.500;11.400;2023-05-07T08:35:59;5.40;;;4.90;;
14306;SDS011;7237;49.500;11.400;2023-05-07T08:38:26;5.88;;;5.38;;
14306;SDS011;7237;49.500;11.400;2023-05-07T08:40:54;6.55;;;4.90;;
14306;SDS011;7237;49.500;11.400;2023-05-07T08:43:21;5.63;;;4.47;;
14306;SDS011;7237;49.500;11.400;2023-05-07T08:45:48;5.15;;;4.75;;
14306;SDS011;7237;49.500;11.400;2023-05-07T08:48:16;5.03;;;4.53;;
14306;SDS011;7237;49.500;11.400;2023-05-07T08:50:45;4.97;;;4.53;;
14306;SDS011;7237;49.500;11.400;2023-05-07T08:53:12;4.85;;;4.45;;
14306;SDS011;7237;49.500;11.400;2023-05-07T08:55:40;5.15;;;4.75;;
14306;SDS011;7237;49.500;11.400;2023-05-07T08:58:07;5.47;;;4.50;;
14306;SDS011;7237;49.500;11.400;2023-05-07T09:00:34;6.03;;;5.15;;
14306;SDS011;7237;49.500;11.400;2023-05-07T09:03:02;5.45;;;4.88;;
14306;SDS011;7237;49.500;11.400;2023-05-07T09:05:29;5.13;;;4.10;;
14306;SDS011;7237;49.500;11.400;2023-05-07T09:08:00;7.13;;;4.80;;
14306;SDS011;7237;49.500;11.400;2023-05-07T09:10:29;5.65;;;4.65;;
14306;SDS011;7237;49.500;11.400;2023-05-07T09:12:56;6.85;;;4.65;;
14306;SDS011;7237;49.500;11.400;2023-05-07T09:15:23;5.85;;;4.60;;
14306;SDS011;7237;49.500;11.400;2023-05-07T09:17:50;5.72;;;4.50;;
14306;SDS011;7237;49.500;11.400;2023-05-07T09:20:17;5.18;;;4.78;;
14306;SDS011;7237;49.500;11.400;2023-05-07T09:22:44;5.35;;;4.65;;
14306;SDS011;7237;49.500;11.400;2023-05-07T09:25:12;6.90;;;4.57;;
14306;SDS011;7237;49.500;11.400;2023-05-07T09:27:41;5.80;;;4.15;;
14306;SDS011;7237;49.500;11.400;2023-05-07T09:30:08;4.72;;;4.32;;
14306;SDS011;7237;49.500;11.400;2023-05-07T09:32:36;4.97;;;4.47;;
14306;SDS011;7237;49.500;11.400;2023-05-07T09:35:04;5.35;;;4.50;;
14306;SDS011;7237;49.500;11.400;2023-05-07T09:37:31;4.97;;;4.45;;
14306;SDS011;7237;49.500;11.400;2023-05-07T09:39:58;5.95;;;4.80;;
14306;SDS011;7237;49.500;11.400;2023-05-07T09:42:27;5.00;;;4.55;;
14306;SDS011;7237;49.500;11.400;2023-05-07T09:44:54;4.53;;;4.10;;
14306;SDS011;7237;49.500;11.400;2023-05-07T09:47:22;4.57;;;4.18;;
14306;SDS011;7237;49.500;11.400;2023-05-07T09:49:50;5.07;;;4.57;;
14306;SDS011;7237;49.500;11.400;2023-05-07T09:52:22;4.50;;;4.10;;
14306;SDS011;7237;49.500;11.400;2023-05-07T09:54:50;4.85;;;4.22;;
14306;SDS011;7237;49.500;11.400;2023-05-07T09:57:18;4.43;;;3.90;;
14306;SDS011;7237;49.500;11.400;2023-05-07T09:59:47;4.28;;;3.90;;
14306;SDS011;7237;49.500;11.400;2023-05-07T10:02:16;4.25;;;3.90;;
14306;SDS011;7237;49.500;11.400;2023-05-07T10:04:43;4.28;;;3.60;;
14306;SDS011;7237;49.500;11.400;2023-05-07T10:07:10;4.65;;;4.18;;
14306;SDS011;7237;49.500;11.400;2023-05-07T10:09:40;4.78;;;4.38;;
14306;SDS011;7237;49.500;11.400;2023-05-07T10:12:09;4.75;;;4.15;;
14306;SDS011;7237;49.500;11.400;2023-05-07T10:14:36;3.75;;;3.45;;
14306;SDS011;7237;49.500;11.400;2023-05-07T10:17:05;5.25;;;3.65;;
14306;SDS011;7237;49.500;11.400;2023-05-07T10:19:32;3.35;;;2.88;;
14306;SDS011;7237;49.500;11.400;2023-05-07T10:22:02;3.10;;;2.80;;
14306;SDS011;7237;49.500;11.400;2023-05-07T10:24:31;3.97;;;3.08;;
14306;SDS011;7237;49.500;11.400;2023-05-07T10:26:59;4.95;;;3.42;;
14306;SDS011;7237;49.500;11.400;2023-05-07T10:29:29;3.60;;;3.30;;
14306;SDS011;7237;49.500;11.400;2023-05-07T10:31:59;4.05;;;3.70;;
14306;SDS011;7237;49.500;11.400;2023-05-07T10:34:34;3.30;;;3.00;;
14306;SDS011;7237;49.500;11.400;2023-05-07T10:37:03;4.78;;;3.20;;
14306;SDS011;7237;49.500;11.400;2023-05-07T10:39:30;3.95;;;3.45;;
14306;SDS011;7237;49.500;11.400;2023-05-07T10:41:58;4.03;;;3.60;;
14306;SDS011;7237;49.500;11.400;2023-05-07T10:44:33;6.20;;;4.05;;
14306;SDS011;7237;49.500;11.400;2023-05-07T10:47:08;3.60;;;3.30;;
14306;SDS011;7237;49.500;11.400;2023-05-07T10:49:38;3.92;;;3.60;;
14306;SDS011;7237;49.500;11.400;2023-05-07T10:52:25;3.90;;;3.47;;
14306;SDS011;7237;49.500;11.400;2023-05-07T10:57:35;3.65;;;3.25;;
14306;SDS011;7237;49.500;11.400;2023-05-07T11:00:02;3.95;;;3.63;;
14306;SDS011;7237;49.500;11.400;2023-05-07T11:05:20;3.40;;;3.13;;
14306;SDS011;7237;49.500;11.400;2023-05-07T11:07:54;3.53;;;3.22;;
14306;SDS011;7237;49.500;11.400;2023-05-07T11:10:21;2.85;;;2.65;;
14306;SDS011;7237;49.500;11.400;2023-05-07T11:12:49;4.00;;;2.95;;
14306;SDS011;7237;49.500;11.400;2023-05-07T11:17:59;5.95;;;3.05;;
14306;SDS011;7237;49.500;11.400;2023-05-07T11:23:12;4.70;;;2.83;;
14306;SDS011;7237;49.500;11.400;2023-05-07T11:26:00;4.20;;;3.13;;
14306;SDS011;7237;49.500;11.400;2023-05-07T11:28:27;6.45;;;3.20;;
14306;SDS011;7237;49.500;11.400;2023-05-07T11:30:54;2.72;;;2.53;;
14306;SDS011;7237;49.500;11.400;2023-05-07T11:33:22;3.03;;;2.72;;
14306;SDS011;7237;49.500;11.400;2023-05-07T11:35:50;5.50;;;3.28;;
14306;SDS011;7237;49.500;11.400;2023-05-07T11:38:17;3.42;;;3.00;;
14306;SDS011;7237;49.500;11.400;2023-05-07T11:40:48;3.17;;;2.88;;
14306;SDS011;7237;49.500;11.400;2023-05-07T11:43:17;3.90;;;3.10;;
14306;SDS011;7237;49.500;11.400;2023-05-07T11:45:44;3.10;;;2.88;;
14306;SDS011;7237;49.500;11.400;2023-05-07T11:48:12;2.83;;;2.60;;
14306;SDS011;7237;49.500;11.400;2023-05-07T11:50:49;3.17;;;2.90;;
14306;SDS011;7237;49.500;11.400;2023-05-07T11:53:16;3.22;;;3.03;;
14306;SDS011;7237;49.500;11.400;2023-05-07T11:55:44;3.65;;;3.35;;
14306;SDS011;7237;49.500;11.400;2023-05-07T11:58:12;3.15;;;2.67;;
14306;SDS011;7237;49.500;11.400;2023-05-07T12:00:47;3.15;;;2.80;;
14306;SDS011;7237;49.500;11.400;2023-05-07T12:03:14;3.72;;;3.05;;
14306;SDS011;7237;49.500;11.400;2023-05-07T12:05:42;3.08;;;2.78;;
14306;SDS011;7237;49.500;11.400;2023-05-07T12:08:12;2.70;;;2.50;;
14306;SDS011;7237;49.500;11.400;2023-05-07T12:10:40;3.67;;;3.10;;
14306;SDS011;7237;49.500;11.400;2023-05-07T12:13:13;3.67;;;2.88;;
14306;SDS011;7237;49.500;11.400;2023-05-07T12:15:42;3.40;;;3.15;;
14306;SDS011;7237;49.500;11.400;2023-05-07T12:18:09;3.50;;;3.00;;
14306;SDS011;7237;49.500;11.400;2023-05-07T12:20:36;3.15;;;2.85;;
14306;SDS011;7237;49.500;11.400;2023-05-07T12:23:04;2.70;;;2.42;;
14306;SDS011;7237;49.500;11.400;2023-05-07T12:25:31;3.20;;;2.92;;
14306;SDS011;7237;49.500;11.400;2023-05-07T12:28:00;3.45;;;2.60;;
14306;SDS011;7237;49.500;11.400;2023-05-07T12:30:27;3.80;;;2.83;;
14306;SDS011;7237;49.500;11.400;2023-05-07T12:32:55;3.20;;;2.90;;
14306;SDS011;7237;49.500;11.400;2023-05-07T12:35:28;3.00;;;2.70;;
14306;SDS011;7237;49.500;11.400;2023-05-07T12:37:55;3.25;;;2.97;;
14306;SDS011;7237;49.500;11.400;2023-05-07T12:40:24;4.70;;;2.67;;
14306;SDS011;7237;49.500;11.400;2023-05-07T12:42:52;4.65;;;2.55;;
14306;SDS011;7237;49.500;11.400;2023-05-07T12:45:20;3.35;;;2.53;;
14306;SDS011;7237;49.500;11.400;2023-05-07T12:47:47;5.18;;;2.90;;
14306;SDS011;7237;49.500;11.400;2023-05-07T12:50:16;3.03;;;2.80;;
14306;SDS011;7237;49.500;11.400;2023-05-07T12:52:43;2.90;;;2.70;;
14306;SDS011;7237;49.500;11.400;2023-05-07T12:55:12;2.97;;;2.78;;
14306;SDS011;7237;49.500;11.400;2023-05-07T12:57:40;3.10;;;2.80;;
14306;SDS011;7237;49.500;11.400;2023-05-07T13:00:08;3.22;;;2.95;;
14306;SDS011;7237;49.500;11.400;2023-05-07T13:02:37;3.25;;;2.95;;
14306;SDS011;7237;49.500;11.400;2023-05-07T13:05:04;5.32;;;2.70;;
14306;SDS011;7237;49.500;11.400;2023-05-07T13:07:33;3.30;;;3.00;;
14306;SDS011;7237;49.500;11.400;2023-05-07T13:10:01;3.85;;;2.72;;
14306;SDS011;7237;49.500;11.400;2023-05-07T13:12:29;4.18;;;2.92;;
14306;SDS011;7237;49.500;11.400;2023-05-07T13:14:56;3.58;;;3.10;;
14306;SDS011;7237;49.500;11.400;2023-05-07T13:17:24;3.50;;;2.92;;
14306;SDS011;7237;49.500;11.400;2023-05-07T13:19:51;3.20;;;2.97;;
14306;SDS011;7237;49.500;11.400;2023-05-07T13:22:18;3.28;;;2.92;;
14306;SDS011;7237;49.500;11.400;2023-05-07T13:24:46;2.80;;;2.60;;
14306;SDS011;7237;49.500;11.400;2023-05-07T13:27:13;2.75;;;2.55;;
14306;SDS011;7237;49.500;11.400;2023-05-07T13:29:40;3.00;;;2.80;;
14306;SDS011;7237;49.500;11.400;2023-05-07T13:32:07;3.15;;;2.95;;
14306;SDS011;7237;49.500;11.400;2023-05-07T13:34:34;3.55;;;3.25;;
14306;SDS011;7237;49.500;11.400;2023-05-07T13:37:01;3.33;;;2.95;;
14306;SDS011;7237;49.500;11.400;2023-05-07T13:39:28;3.33;;;3.03;;
14306;SDS011;7237;49.500;11.400;2023-05-07T13:41:57;3.00;;;2.70;;
14306;SDS011;7237;49.500;11.400;2023-05-07T13:44:24;4.28;;;3.30;;
14306;SDS011;7237;49.500;11.400;2023-05-07T13:46:51;4.50;;;2.92;;
14306;SDS011;7237;49.500;11.400;2023-05-07T13:49:19;3.20;;;2.90;;
14306;SDS011;7237;49.500;11.400;2023-05-07T13:51:46;3.20;;;2.90;;
14306;SDS011;7237;49.500;11.400;2023-05-07T13:54:13;3.38;;;3.08;;
14306;SDS011;7237;49.500;11.400;2023-05-07T13:56:40;3.03;;;2.83;;
14306;SDS011;7237;49.500;11.400;2023-05-07T13:59:09;3.35;;;3.05;;
14306;SDS011;7237;49.500;11.400;2023-05-07T14:01:37;3.40;;;3.10;;
14306;SDS011;7237;49.500;11.400;2023-05-07T14:04:04;4.53;;;3.33;;
14306;SDS011;7237;49.500;11.400;2023-05-07T14:06:32;3.03;;;2.83;;
14306;SDS011;7237;49.500;11.400;2023-05-07T14:08:59;3.60;;;2.90;;
14306;SDS011;7237;49.500;11.400;2023-05-07T14:11:26;3.83;;;3.45;;
14306;SDS011;7237;49.500;11.400;2023-05-07T14:13:53;3.33;;;3.10;;
14306;SDS011;7237;49.500;11.400;2023-05-07T14:16:23;3.72;;;3.40;;
14306;SDS011;7237;49.500;11.400;2023-05-07T14:18:50;4.32;;;3.22;;
14306;SDS011;7237;49.500;11.400;2023-05-07T14:21:17;2.72;;;2.53;;
14306;SDS011;7237;49.500;11.400;2023-05-07T14:23:44;5.53;;;2.83;;
14306;SDS011;7237;49.500;11.400;2023-05-07T14:26:11;2.95;;;2.75;;
14306;SDS011;7237;49.500;11.400;2023-05-07T14:28:38;3.00;;;2.80;;
14306;SDS011;7237;49.500;11.400;2023-05-07T14:31:11;3.60;;;2.60;;
14306;SDS011;7237;49.500;11.400;2023-05-07T14:33:39;3.95;;;2.70;;
14306;SDS011;7237;49.500;11.400;2023-05-07T14:36:06;2.80;;;2.60;;
14306;SDS011;7237;49.500;11.400;2023-05-07T14:38:33;4.40;;;2.70;;
14306;SDS011;7237;49.500;11.400;2023-05-07T14:41:00;3.05;;;2.70;;
14306;SDS011;7237;49.500;11.400;2023-05-07T14:43:27;2.83;;;2.63;;
14306;SDS011;7237;49.500;11.400;2023-05-07T14:45:54;3.28;;;3.00;;
14306;SDS011;7237;49.500;11.400;2023-05-07T14:48:21;4.10;;;2.80;;
14306;SDS011;7237;49.500;11.400;2023-05-07T14:50:49;2.88;;;2.67;;
14306;SDS011;7237;49.500;11.400;2023-05-07T14:53:16;2.28;;;2.17;;
14306;SDS011;7237;49.500;11.400;2023-05-07T14:55:43;2.97;;;2.72;;
14306;SDS011;7237;49.500;11.400;2023-05-07T14:58:11;5.53;;;2.78;;
14306;SDS011;7237;49.500;11.400;2023-05-07T15:00:38;3.22;;;2.60;;
14306;SDS011;7237;49.500;11.400;2023-05-07T15:03:06;3.10;;;2.60;;